createdAt,value
2023-02-16T00:00:31.712Z,8.60
2023-02-16T00:10:37.337Z,8.40
2023-02-16T00:20:43.181Z,8.50
2023-02-16T00:30:47.034Z,8.70
2023-02-16T00:40:52.377Z,8.80
2023-02-16T00:50:56.255Z,8.80
2023-02-16T01:01:08.299Z,8.90
2023-02-16T01:11:12.940Z,8.90
2023-02-16T01:21:19.127Z,8.70
2023-02-16T01:31:23.380Z,8.60
2023-02-16T01:41:38.857Z,8.70
2023-02-16T01:51:51.632Z,8.80
2023-02-16T02:01:58.462Z,8.80
2023-02-16T02:12:09.407Z,8.80
2023-02-16T02:23:01.130Z,8.80
2023-02-16T02:33:24.001Z,8.70
2023-02-16T02:43:31.273Z,8.80
2023-02-16T02:53:39.931Z,8.80
2023-02-16T03:03:47.458Z,8.70
2023-02-16T03:13:57.238Z,8.60
2023-02-16T03:24:21.990Z,8.60
2023-02-16T03:34:28.535Z,8.50
2023-02-16T03:44:32.273Z,8.30
2023-02-16T03:54:37.409Z,8.30
2023-02-16T04:04:41.216Z,8.20
2023-02-16T04:14:46.465Z,8.00
2023-02-16T04:24:50.336Z,7.90
2023-02-16T04:34:55.835Z,7.80
2023-02-16T04:44:59.609Z,7.80
2023-02-16T04:55:06.043Z,7.80
2023-02-16T05:05:10.511Z,7.80
2023-02-16T05:15:15.611Z,7.70
2023-02-16T05:25:19.363Z,7.70
2023-02-16T05:35:24.900Z,7.80
2023-02-16T05:45:28.780Z,7.70
2023-02-16T05:55:34.062Z,7.80
2023-02-16T06:05:37.783Z,7.80
2023-02-16T06:15:43.142Z,7.80
2023-02-16T06:25:50.514Z,7.70
2023-02-16T06:35:56.077Z,7.70
2023-02-16T06:45:59.830Z,7.80
2023-02-16T06:56:05.319Z,7.80
2023-02-16T07:06:09.203Z,8.00
2023-02-16T07:16:15.328Z,8.00
2023-02-16T07:26:19.087Z,7.90
2023-02-16T07:36:24.748Z,8.00
2023-02-16T07:46:28.573Z,8.20
2023-02-16T07:56:35.184Z,8.40
2023-02-16T08:06:39.147Z,8.60
2023-02-16T08:16:44.412Z,9.00
2023-02-16T08:26:50.143Z,9.60
2023-02-16T08:36:57.130Z,10.00
2023-02-16T08:47:03.059Z,10.00
2023-02-16T08:57:08.756Z,10.40
2023-02-16T09:07:13.994Z,10.80
2023-02-16T09:17:19.977Z,11.10
2023-02-16T09:27:24.077Z,11.80
2023-02-16T09:37:29.250Z,12.50
2023-02-16T09:47:37.990Z,13.10
2023-02-16T09:57:57.522Z,13.80
2023-02-16T10:08:04.696Z,13.30
2023-02-16T10:18:20.321Z,13.10
2023-02-16T10:28:32.904Z,13.40
2023-02-16T10:38:44.305Z,13.60
2023-02-16T10:48:48.274Z,13.90
2023-02-16T10:58:54.649Z,13.90
2023-02-16T11:09:01.305Z,14.00
2023-02-16T11:19:09.357Z,14.10
2023-02-16T11:29:21.100Z,14.30
2023-02-16T11:39:31.108Z,14.30
2023-02-16T11:49:37.395Z,14.20
2023-02-16T11:59:43.199Z,14.40
2023-02-16T12:09:55.084Z,14.60
2023-02-16T12:20:07.490Z,14.20
2023-02-16T12:30:25.686Z,14.30
2023-02-16T12:40:52.829Z,14.40
2023-02-16T12:50:58.173Z,14.40
2023-02-16T13:01:07.790Z,14.60
2023-02-16T13:11:19.129Z,15.20
2023-02-16T13:21:51.926Z,15.40
2023-02-16T13:32:07.845Z,15.20
2023-02-16T13:42:35.743Z,15.20
2023-02-16T13:52:42.347Z,15.40
2023-02-16T14:03:11.053Z,15.30
2023-02-16T14:13:15.629Z,15.70
2023-02-16T14:23:34.653Z,16.60
2023-02-16T14:33:47.368Z,16.50
2023-02-16T14:43:56.382Z,16.40
2023-02-16T14:54:23.820Z,15.80
2023-02-16T15:04:33.677Z,15.40
2023-02-16T15:14:44.280Z,15.50
2023-02-16T15:24:59.778Z,15.20
2023-02-16T15:35:13.024Z,15.10
2023-02-16T15:45:38.213Z,15.10
2023-02-16T15:55:47.001Z,14.80
2023-02-16T16:06:06.394Z,14.70
2023-02-16T16:16:11.230Z,14.90
2023-02-16T16:26:23.861Z,15.50
2023-02-16T16:36:33.118Z,15.70
2023-02-16T16:46:38.689Z,14.90
2023-02-16T16:56:43.215Z,14.40
2023-02-16T17:06:48.651Z,13.90
2023-02-16T17:16:54.863Z,13.40
2023-02-16T17:26:59.943Z,13.10
2023-02-16T17:37:07.625Z,12.60
2023-02-16T17:47:17.020Z,12.10
2023-02-16T17:57:21.265Z,11.40
2023-02-16T18:07:26.559Z,10.90
2023-02-16T18:17:30.522Z,10.50
2023-02-16T18:27:35.999Z,10.10
2023-02-16T18:37:40.264Z,9.90
2023-02-16T18:47:45.648Z,9.80
2023-02-16T18:57:49.478Z,9.50
2023-02-16T19:07:54.959Z,9.20
2023-02-16T19:17:58.822Z,9.10
2023-02-16T19:28:04.106Z,9.10
2023-02-16T19:38:08.325Z,8.90
2023-02-16T19:48:13.683Z,8.50
2023-02-16T19:58:17.515Z,8.40
2023-02-16T20:08:23.185Z,8.40
2023-02-16T20:18:26.844Z,8.40
2023-02-16T20:28:32.117Z,8.30
2023-02-16T20:38:36.548Z,8.10
2023-02-16T20:48:42.115Z,7.90
2023-02-16T20:58:47.111Z,7.80
2023-02-16T21:08:52.233Z,8.00
2023-02-16T21:18:56.135Z,8.20
2023-02-16T21:29:01.511Z,8.00
2023-02-16T21:39:05.222Z,7.90
2023-02-16T21:49:13.822Z,7.90
2023-02-16T21:59:19.741Z,7.90
2023-02-16T22:09:25.222Z,7.90
2023-02-16T22:19:29.076Z,7.70
2023-02-16T22:29:34.835Z,7.80
2023-02-16T22:39:38.566Z,7.70
2023-02-16T22:49:43.839Z,7.80
2023-02-16T22:59:48.137Z,7.90
2023-02-16T23:09:53.481Z,7.20
2023-02-16T23:19:57.231Z,7.30
2023-02-16T23:30:02.647Z,7.50
2023-02-16T23:40:07.267Z,7.40
2023-02-16T23:50:12.963Z,7.40
